sensor_id;sensor_type;location;lat;lon;timestamp;P1;durP1;ratioP1;P2;durP2;ratioP2
22973;SDS011;11653;50.848;4.584;2023-05-10T00:02:06;19.10;;;10.87;;
22973;SDS011;11653;50.848;4.584;2023-05-10T00:04:32;22.60;;;10.77;;
22973;SDS011;11653;50.848;4.584;2023-05-10T00:06:58;18.73;;;10.67;;
22973;SDS011;11653;50.848;4.584;2023-05-10T00:09:23;14.57;;;9.83;;
22973;SDS011;11653;50.848;4.584;2023-05-10T00:11:49;19.93;;;11.47;;
22973;SDS011;11653;50.848;4.584;2023-05-10T00:14:15;19.30;;;10.70;;
22973;SDS011;11653;50.848;4.584;2023-05-10T00:16:41;24.20;;;11.40;;
22973;SDS011;11653;50.848;4.584;2023-05-10T00:19:06;26.93;;;12.33;;
22973;SDS011;11653;50.848;4.584;2023-05-10T00:21:32;24.27;;;10.80;;
22973;SDS011;11653;50.848;4.584;2023-05-10T00:23:58;28.17;;;10.63;;
22973;SDS011;11653;50.848;4.584;2023-05-10T00:26:24;24.13;;;11.67;;
22973;SDS011;11653;50.848;4.584;2023-05-10T00:28:50;22.33;;;11.67;;
22973;SDS011;11653;50.848;4.584;2023-05-10T00:31:16;27.23;;;10.90;;
22973;SDS011;11653;50.848;4.584;2023-05-10T00:33:41;19.83;;;10.90;;
22973;SDS011;11653;50.848;4.584;2023-05-10T00:36:07;23.53;;;11.87;;
22973;SDS011;11653;50.848;4.584;2023-05-10T00:38:33;25.83;;;12.03;;
22973;SDS011;11653;50.848;4.584;2023-05-10T00:40:59;22.23;;;11.97;;
22973;SDS011;11653;50.848;4.584;2023-05-10T00:43:25;23.53;;;11.73;;
22973;SDS011;11653;50.848;4.584;2023-05-10T00:45:50;23.33;;;12.53;;
22973;SDS011;11653;50.848;4.584;2023-05-10T00:48:17;23.00;;;11.53;;
22973;SDS011;11653;50.848;4.584;2023-05-10T00:50:43;21.97;;;12.27;;
22973;SDS011;11653;50.848;4.584;2023-05-10T00:53:09;20.30;;;11.47;;
22973;SDS011;11653;50.848;4.584;2023-05-10T00:55:35;25.33;;;13.37;;
22973;SDS011;11653;50.848;4.584;2023-05-10T00:58:01;24.73;;;12.10;;
22973;SDS011;11653;50.848;4.584;2023-05-10T01:00:27;20.67;;;11.60;;
22973;SDS011;11653;50.848;4.584;2023-05-10T01:02:53;25.93;;;11.93;;
22973;SDS011;11653;50.848;4.584;2023-05-10T01:05:19;35.17;;;13.60;;
22973;SDS011;11653;50.848;4.584;2023-05-10T01:07:45;24.43;;;12.23;;
22973;SDS011;11653;50.848;4.584;2023-05-10T01:10:10;25.10;;;13.00;;
22973;SDS011;11653;50.848;4.584;2023-05-10T01:12:37;23.90;;;12.37;;
22973;SDS011;11653;50.848;4.584;2023-05-10T01:15:06;25.53;;;13.93;;
22973;SDS011;11653;50.848;4.584;2023-05-10T01:17:33;25.93;;;13.20;;
22973;SDS011;11653;50.848;4.584;2023-05-10T01:20:00;27.33;;;13.37;;
22973;SDS011;11653;50.848;4.584;2023-05-10T01:28:22;26.77;;;13.27;;
22973;SDS011;11653;50.848;4.584;2023-05-10T01:34:42;25.17;;;12.97;;
22973;SDS011;11653;50.848;4.584;2023-05-10T01:37:06;28.20;;;13.47;;
22973;SDS011;11653;50.848;4.584;2023-05-10T01:42:42;28.90;;;14.13;;
22973;SDS011;11653;50.848;4.584;2023-05-10T01:45:20;25.13;;;13.70;;
22973;SDS011;11653;50.848;4.584;2023-05-10T01:48:07;21.77;;;13.47;;
22973;SDS011;11653;50.848;4.584;2023-05-10T01:50:35;26.97;;;14.93;;
22973;SDS011;11653;50.848;4.584;2023-05-10T01:53:04;26.57;;;13.50;;
22973;SDS011;11653;50.848;4.584;2023-05-10T01:55:34;31.13;;;13.97;;
22973;SDS011;11653;50.848;4.584;2023-05-10T01:58:08;27.17;;;14.67;;
22973;SDS011;11653;50.848;4.584;2023-05-10T02:00:39;28.80;;;15.47;;
22973;SDS011;11653;50.848;4.584;2023-05-10T02:03:08;28.73;;;15.37;;
22973;SDS011;11653;50.848;4.584;2023-05-10T02:05:36;32.27;;;15.17;;
22973;SDS011;11653;50.848;4.584;2023-05-10T02:08:05;25.57;;;14.80;;
22973;SDS011;11653;50.848;4.584;2023-05-10T02:10:32;28.93;;;15.37;;
22973;SDS011;11653;50.848;4.584;2023-05-10T02:12:59;30.97;;;15.40;;
22973;SDS011;11653;50.848;4.584;2023-05-10T02:15:27;29.93;;;15.77;;
22973;SDS011;11653;50.848;4.584;2023-05-10T02:17:55;30.97;;;16.90;;
22973;SDS011;11653;50.848;4.584;2023-05-10T02:20:22;30.47;;;14.90;;
22973;SDS011;11653;50.848;4.584;2023-05-10T02:22:50;27.63;;;15.27;;
22973;SDS011;11653;50.848;4.584;2023-05-10T02:25:19;28.40;;;16.10;;
22973;SDS011;11653;50.848;4.584;2023-05-10T02:27:46;27.07;;;15.50;;
22973;SDS011;11653;50.848;4.584;2023-05-10T02:30:13;29.77;;;15.70;;
22973;SDS011;11653;50.848;4.584;2023-05-10T02:32:40;29.80;;;15.30;;
22973;SDS011;11653;50.848;4.584;2023-05-10T02:35:06;28.43;;;14.33;;
22973;SDS011;11653;50.848;4.584;2023-05-10T02:37:33;31.90;;;16.37;;
22973;SDS011;11653;50.848;4.584;2023-05-10T02:40:00;25.37;;;14.40;;
22973;SDS011;11653;50.848;4.584;2023-05-10T02:42:28;28.27;;;15.87;;
22973;SDS011;11653;50.848;4.584;2023-05-10T02:44:59;28.53;;;14.73;;
22973;SDS011;11653;50.848;4.584;2023-05-10T02:47:27;29.37;;;15.03;;
22973;SDS011;11653;50.848;4.584;2023-05-10T02:49:53;33.63;;;16.03;;
22973;SDS011;11653;50.848;4.584;2023-05-10T02:52:21;26.93;;;12.87;;
22973;SDS011;11653;50.848;4.584;2023-05-10T02:54:52;32.77;;;14.70;;
22973;SDS011;11653;50.848;4.584;2023-05-10T02:57:31;29.07;;;14.87;;
22973;SDS011;11653;50.848;4.584;2023-05-10T02:59:58;29.40;;;14.03;;
22973;SDS011;11653;50.848;4.584;2023-05-10T03:02:25;30.50;;;15.07;;
22973;SDS011;11653;50.848;4.584;2023-05-10T03:04:51;26.53;;;13.10;;
22973;SDS011;11653;50.848;4.584;2023-05-10T03:07:17;23.67;;;13.37;;
22973;SDS011;11653;50.848;4.584;2023-05-10T03:09:46;29.43;;;13.23;;
22973;SDS011;11653;50.848;4.584;2023-05-10T03:12:33;24.83;;;13.97;;
22973;SDS011;11653;50.848;4.584;2023-05-10T03:20:57;26.77;;;13.03;;
22973;SDS011;11653;50.848;4.584;2023-05-10T03:23:12;22.20;;;12.97;;
22973;SDS011;11653;50.848;4.584;2023-05-10T03:25:37;24.17;;;12.67;;
22973;SDS011;11653;50.848;4.584;2023-05-10T03:28:05;21.43;;;12.10;;
22973;SDS011;11653;50.848;4.584;2023-05-10T03:30:31;24.90;;;11.97;;
22973;SDS011;11653;50.848;4.584;2023-05-10T03:32:57;26.67;;;13.53;;
22973;SDS011;11653;50.848;4.584;2023-05-10T03:35:28;23.33;;;13.13;;
22973;SDS011;11653;50.848;4.584;2023-05-10T03:37:54;30.27;;;14.47;;
22973;SDS011;11653;50.848;4.584;2023-05-10T03:40:20;24.30;;;12.87;;
22973;SDS011;11653;50.848;4.584;2023-05-10T03:42:45;26.47;;;12.70;;
22973;SDS011;11653;50.848;4.584;2023-05-10T03:45:11;24.43;;;13.47;;
22973;SDS011;11653;50.848;4.584;2023-05-10T03:47:37;23.17;;;12.83;;
22973;SDS011;11653;50.848;4.584;2023-05-10T03:50:02;26.43;;;12.77;;
22973;SDS011;11653;50.848;4.584;2023-05-10T03:52:28;23.80;;;13.20;;
22973;SDS011;11653;50.848;4.584;2023-05-10T03:54:54;26.70;;;13.33;;
22973;SDS011;11653;50.848;4.584;2023-05-10T03:57:19;26.30;;;13.70;;
22973;SDS011;11653;50.848;4.584;2023-05-10T03:59:45;26.97;;;14.53;;
22973;SDS011;11653;50.848;4.584;2023-05-10T04:02:11;31.63;;;14.60;;
22973;SDS011;11653;50.848;4.584;2023-05-10T04:04:36;22.10;;;13.47;;
22973;SDS011;11653;50.848;4.584;2023-05-10T04:07:02;26.53;;;13.63;;
22973;SDS011;11653;50.848;4.584;2023-05-10T04:09:28;27.03;;;14.67;;
22973;SDS011;11653;50.848;4.584;2023-05-10T04:11:54;27.97;;;12.73;;
22973;SDS011;11653;50.848;4.584;2023-05-10T04:14:19;32.17;;;15.70;;
22973;SDS011;11653;50.848;4.584;2023-05-10T04:16:45;31.20;;;15.40;;
22973;SDS011;11653;50.848;4.584;2023-05-10T04:19:10;23.97;;;13.80;;
22973;SDS011;11653;50.848;4.584;2023-05-10T04:21:36;32.33;;;15.87;;
22973;SDS011;11653;50.848;4.584;2023-05-10T04:24:02;40.50;;;18.80;;
22973;SDS011;11653;50.848;4.584;2023-05-10T04:26:28;38.97;;;18.73;;
22973;SDS011;11653;50.848;4.584;2023-05-10T04:28:53;44.33;;;18.83;;
22973;SDS011;11653;50.848;4.584;2023-05-10T04:31:19;41.33;;;18.67;;
22973;SDS011;11653;50.848;4.584;2023-05-10T04:33:45;36.20;;;18.30;;
22973;SDS011;11653;50.848;4.584;2023-05-10T04:36:10;39.87;;;19.53;;
22973;SDS011;11653;50.848;4.584;2023-05-10T04:38:36;46.43;;;20.20;;
22973;SDS011;11653;50.848;4.584;2023-05-10T04:41:07;43.53;;;19.93;;
22973;SDS011;11653;50.848;4.584;2023-05-10T04:43:34;40.37;;;20.40;;
22973;SDS011;11653;50.848;4.584;2023-05-10T04:46:00;48.67;;;21.40;;
22973;SDS011;11653;50.848;4.584;2023-05-10T04:48:26;47.67;;;21.33;;
22973;SDS011;11653;50.848;4.584;2023-05-10T04:50:51;41.57;;;21.20;;
22973;SDS011;11653;50.848;4.584;2023-05-10T04:53:17;47.57;;;21.20;;
22973;SDS011;11653;50.848;4.584;2023-05-10T04:55:43;48.20;;;21.50;;
22973;SDS011;11653;50.848;4.584;2023-05-10T04:58:08;49.63;;;22.60;;
22973;SDS011;11653;50.848;4.584;2023-05-10T05:00:34;48.77;;;23.53;;
22973;SDS011;11653;50.848;4.584;2023-05-10T05:03:00;48.20;;;22.10;;
22973;SDS011;11653;50.848;4.584;2023-05-10T05:05:25;48.47;;;23.23;;
22973;SDS011;11653;50.848;4.584;2023-05-10T05:07:51;50.27;;;23.47;;
22973;SDS011;11653;50.848;4.584;2023-05-10T05:10:17;49.67;;;22.43;;
22973;SDS011;11653;50.848;4.584;2023-05-10T05:12:43;45.70;;;21.33;;
22973;SDS011;11653;50.848;4.584;2023-05-10T05:15:08;47.17;;;22.73;;
22973;SDS011;11653;50.848;4.584;2023-05-10T05:17:35;47.43;;;21.80;;
22973;SDS011;11653;50.848;4.584;2023-05-10T05:20:01;49.87;;;22.87;;
22973;SDS011;11653;50.848;4.584;2023-05-10T05:22:27;49.30;;;22.67;;
22973;SDS011;11653;50.848;4.584;2023-05-10T05:24:53;50.33;;;21.97;;
22973;SDS011;11653;50.848;4.584;2023-05-10T05:27:20;49.70;;;22.00;;
22973;SDS011;11653;50.848;4.584;2023-05-10T05:29:55;49.57;;;22.97;;
22973;SDS011;11653;50.848;4.584;2023-05-10T05:32:22;48.83;;;22.57;;
22973;SDS011;11653;50.848;4.584;2023-05-10T05:34:48;47.20;;;22.20;;
22973;SDS011;11653;50.848;4.584;2023-05-10T05:37:14;48.70;;;22.63;;
22973;SDS011;11653;50.848;4.584;2023-05-10T05:39:40;48.50;;;22.07;;
22973;SDS011;11653;50.848;4.584;2023-05-10T05:42:07;43.97;;;22.47;;
22973;SDS011;11653;50.848;4.584;2023-05-10T05:44:33;51.77;;;22.57;;
22973;SDS011;11653;50.848;4.584;2023-05-10T05:46:59;45.93;;;23.07;;
22973;SDS011;11653;50.848;4.584;2023-05-10T05:49:26;43.93;;;21.53;;
22973;SDS011;11653;50.848;4.584;2023-05-10T05:51:51;43.33;;;21.80;;
22973;SDS011;11653;50.848;4.584;2023-05-10T05:54:17;49.00;;;22.63;;
22973;SDS011;11653;50.848;4.584;2023-05-10T05:56:43;45.10;;;20.40;;
22973;SDS011;11653;50.848;4.584;2023-05-10T05:59:09;47.30;;;22.23;;
22973;SDS011;11653;50.848;4.584;2023-05-10T06:01:35;44.80;;;22.07;;
22973;SDS011;11653;50.848;4.584;2023-05-10T06:04:01;47.20;;;22.50;;
22973;SDS011;11653;50.848;4.584;2023-05-10T06:06:27;46.70;;;22.27;;
22973;SDS011;11653;50.848;4.584;2023-05-10T06:08:54;43.13;;;22.17;;
22973;SDS011;11653;50.848;4.584;2023-05-10T06:11:20;46.23;;;22.80;;
22973;SDS011;11653;50.848;4.584;2023-05-10T06:13:48;44.47;;;22.20;;
22973;SDS011;11653;50.848;4.584;2023-05-10T06:16:14;42.10;;;21.20;;
22973;SDS011;11653;50.848;4.584;2023-05-10T06:18:40;44.10;;;20.10;;
22973;SDS011;11653;50.848;4.584;2023-05-10T06:21:06;36.83;;;18.13;;
22973;SDS011;11653;50.848;4.584;2023-05-10T06:23:31;32.43;;;18.03;;
22973;SDS011;11653;50.848;4.584;2023-05-10T06:26:00;24.60;;;13.63;;
22973;SDS011;11653;50.848;4.584;2023-05-10T06:28:26;22.13;;;12.40;;
22973;SDS011;11653;50.848;4.584;2023-05-10T06:30:52;23.67;;;11.67;;
22973;SDS011;11653;50.848;4.584;2023-05-10T06:33:18;21.40;;;12.17;;
22973;SDS011;11653;50.848;4.584;2023-05-10T06:35:43;17.17;;;9.73;;
22973;SDS011;11653;50.848;4.584;2023-05-10T06:38:09;12.47;;;7.43;;
22973;SDS011;11653;50.848;4.584;2023-05-10T06:40:34;8.27;;;5.53;;
22973;SDS011;11653;50.848;4.584;2023-05-10T06:43:01;8.37;;;4.27;;
22973;SDS011;11653;50.848;4.584;2023-05-10T06:45:26;10.60;;;4.37;;
22973;SDS011;11653;50.848;4.584;2023-05-10T06:47:52;8.37;;;4.10;;
22973;SDS011;11653;50.848;4.584;2023-05-10T06:50:18;7.20;;;4.43;;
22973;SDS011;11653;50.848;4.584;2023-05-10T06:52:43;8.60;;;5.33;;
22973;SDS011;11653;50.848;4.584;2023-05-10T06:55:09;9.47;;;5.73;;
22973;SDS011;11653;50.848;4.584;2023-05-10T06:57:35;10.00;;;5.93;;
22973;SDS011;11653;50.848;4.584;2023-05-10T07:00:01;8.17;;;5.20;;
22973;SDS011;11653;50.848;4.584;2023-05-10T07:02:29;8.60;;;4.80;;
22973;SDS011;11653;50.848;4.584;2023-05-10T07:04:54;9.37;;;6.03;;
22973;SDS011;11653;50.848;4.584;2023-05-10T07:07:20;10.07;;;6.03;;
22973;SDS011;11653;50.848;4.584;2023-05-10T07:09:46;9.63;;;5.30;;
22973;SDS011;11653;50.848;4.584;2023-05-10T07:12:11;10.80;;;4.90;;
22973;SDS011;11653;50.848;4.584;2023-05-10T07:14:37;12.20;;;5.80;;
22973;SDS011;11653;50.848;4.584;2023-05-10T07:17:03;12.70;;;5.47;;
22973;SDS011;11653;50.848;4.584;2023-05-10T07:19:29;8.40;;;5.40;;
22973;SDS011;11653;50.848;4.584;2023-05-10T07:21:55;9.17;;;4.63;;
22973;SDS011;11653;50.848;4.584;2023-05-10T07:24:21;5.57;;;3.87;;
22973;SDS011;11653;50.848;4.584;2023-05-10T07:26:46;4.50;;;3.43;;
22973;SDS011;11653;50.848;4.584;2023-05-10T07:29:12;7.47;;;3.97;;
22973;SDS011;11653;50.848;4.584;2023-05-10T07:31:38;11.87;;;6.43;;
22973;SDS011;11653;50.848;4.584;2023-05-10T07:34:03;11.60;;;8.80;;
22973;SDS011;11653;50.848;4.584;2023-05-10T07:36:29;7.83;;;5.23;;
22973;SDS011;11653;50.848;4.584;2023-05-10T07:38:55;11.60;;;5.10;;
22973;SDS011;11653;50.848;4.584;2023-05-10T07:41:22;12.30;;;6.70;;
22973;SDS011;11653;50.848;4.584;2023-05-10T07:43:48;13.43;;;6.67;;
22973;SDS011;11653;50.848;4.584;2023-05-10T07:46:13;21.00;;;9.07;;
22973;SDS011;11653;50.848;4.584;2023-05-10T07:48:39;13.40;;;7.60;;
22973;SDS011;11653;50.848;4.584;2023-05-10T07:51:05;18.47;;;8.60;;
22973;SDS011;11653;50.848;4.584;2023-05-10T07:53:32;14.73;;;8.10;;
22973;SDS011;11653;50.848;4.584;2023-05-10T07:55:58;20.03;;;8.63;;
22973;SDS011;11653;50.848;4.584;2023-05-10T07:58:24;19.03;;;8.93;;
22973;SDS011;11653;50.848;4.584;2023-05-10T08:00:50;21.13;;;9.53;;
22973;SDS011;11653;50.848;4.584;2023-05-10T08:03:16;18.23;;;9.27;;
22973;SDS011;11653;50.848;4.584;2023-05-10T08:05:41;16.20;;;8.50;;
22973;SDS011;11653;50.848;4.584;2023-05-10T08:08:07;16.10;;;9.47;;
22973;SDS011;11653;50.848;4.584;2023-05-10T08:10:33;22.03;;;9.90;;
22973;SDS011;11653;50.848;4.584;2023-05-10T08:12:58;22.57;;;10.47;;
22973;SDS011;11653;50.848;4.584;2023-05-10T08:15:24;19.57;;;9.93;;
22973;SDS011;11653;50.848;4.584;2023-05-10T08:17:53;17.67;;;10.00;;
22973;SDS011;11653;50.848;4.584;2023-05-10T08:20:19;21.53;;;11.23;;
22973;SDS011;11653;50.848;4.584;2023-05-10T08:22:45;22.37;;;10.77;;
22973;SDS011;11653;50.848;4.584;2023-05-10T08:25:11;20.40;;;10.30;;
22973;SDS011;11653;50.848;4.584;2023-05-10T08:27:37;23.20;;;9.77;;
22973;SDS011;11653;50.848;4.584;2023-05-10T08:30:03;17.23;;;9.50;;
22973;SDS011;11653;50.848;4.584;2023-05-10T08:32:28;16.60;;;8.63;;
22973;SDS011;11653;50.848;4.584;2023-05-10T08:34:55;20.27;;;8.93;;
22973;SDS011;11653;50.848;4.584;2023-05-10T08:37:22;16.30;;;8.93;;
22973;SDS011;11653;50.848;4.584;2023-05-10T08:39:48;17.13;;;8.70;;
22973;SDS011;11653;50.848;4.584;2023-05-10T08:42:14;16.73;;;9.37;;
22973;SDS011;11653;50.848;4.584;2023-05-10T08:44:44;17.87;;;9.00;;
22973;SDS011;11653;50.848;4.584;2023-05-10T08:47:13;16.90;;;8.30;;
22973;SDS011;11653;50.848;4.584;2023-05-10T08:49:41;16.33;;;8.50;;
22973;SDS011;11653;50.848;4.584;2023-05-10T08:52:08;21.53;;;8.80;;
22973;SDS011;11653;50.848;4.584;2023-05-10T08:54:36;13.73;;;8.03;;
22973;SDS011;11653;50.848;4.584;2023-05-10T08:57:02;20.30;;;9.60;;
22973;SDS011;11653;50.848;4.584;2023-05-10T08:59:28;12.63;;;6.70;;
22973;SDS011;11653;50.848;4.584;2023-05-10T09:01:55;14.03;;;7.63;;
22973;SDS011;11653;50.848;4.584;2023-05-10T09:04:23;12.80;;;6.97;;
22973;SDS011;11653;50.848;4.584;2023-05-10T09:06:49;14.23;;;7.03;;
22973;SDS011;11653;50.848;4.584;2023-05-10T09:09:15;13.07;;;6.87;;
22973;SDS011;11653;50.848;4.584;2023-05-10T09:11:42;10.73;;;6.70;;
22973;SDS011;11653;50.848;4.584;2023-05-10T09:14:09;11.53;;;6.67;;
22973;SDS011;11653;50.848;4.584;2023-05-10T09:16:34;13.37;;;6.77;;
22973;SDS011;11653;50.848;4.584;2023-05-10T09:19:00;10.93;;;5.93;;
22973;SDS011;11653;50.848;4.584;2023-05-10T09:21:26;8.60;;;5.60;;
22973;SDS011;11653;50.848;4.584;2023-05-10T09:23:52;10.30;;;5.90;;
22973;SDS011;11653;50.848;4.584;2023-05-10T09:26:21;12.50;;;6.00;;
22973;SDS011;11653;50.848;4.584;2023-05-10T09:28:55;10.97;;;5.87;;
22973;SDS011;11653;50.848;4.584;2023-05-10T09:31:22;9.07;;;5.77;;
22973;SDS011;11653;50.848;4.584;2023-05-10T09:33:50;11.10;;;5.87;;
22973;SDS011;11653;50.848;4.584;2023-05-10T09:36:17;12.90;;;5.50;;
22973;SDS011;11653;50.848;4.584;2023-05-10T09:38:49;9.33;;;5.93;;
22973;SDS011;11653;50.848;4.584;2023-05-10T09:41:19;10.10;;;5.27;;
22973;SDS011;11653;50.848;4.584;2023-05-10T09:43:48;10.67;;;5.37;;
22973;SDS011;11653;50.848;4.584;2023-05-10T09:46:15;8.80;;;4.53;;
22973;SDS011;11653;50.848;4.584;2023-05-10T09:48:42;7.57;;;4.70;;
22973;SDS011;11653;50.848;4.584;2023-05-10T09:51:18;9.90;;;5.30;;
22973;SDS011;11653;50.848;4.584;2023-05-10T09:53:45;8.40;;;4.60;;
22973;SDS011;11653;50.848;4.584;2023-05-10T09:56:11;7.30;;;4.97;;
22973;SDS011;11653;50.848;4.584;2023-05-10T09:58:36;7.23;;;4.77;;
22973;SDS011;11653;50.848;4.584;2023-05-10T10:01:09;8.20;;;4.80;;
22973;SDS011;11653;50.848;4.584;2023-05-10T10:03:41;9.23;;;4.90;;
22973;SDS011;11653;50.848;4.584;2023-05-10T10:06:08;8.50;;;4.37;;
22973;SDS011;11653;50.848;4.584;2023-05-10T10:08:34;6.80;;;4.20;;
22973;SDS011;11653;50.848;4.584;2023-05-10T10:11:00;5.73;;;3.77;;
22973;SDS011;11653;50.848;4.584;2023-05-10T10:13:26;7.57;;;3.80;;
22973;SDS011;11653;50.848;4.584;2023-05-10T10:15:52;5.17;;;3.50;;
22973;SDS011;11653;50.848;4.584;2023-05-10T10:18:18;6.57;;;4.47;;
22973;SDS011;11653;50.848;4.584;2023-05-10T10:20:48;7.57;;;4.27;;
22973;SDS011;11653;50.848;4.584;2023-05-10T10:23:14;6.10;;;3.47;;
22973;SDS011;11653;50.848;4.584;2023-05-10T10:25:40;5.20;;;3.50;;
22973;SDS011;11653;50.848;4.584;2023-05-10T10:34:05;3.40;;;2.53;;
22973;SDS011;11653;50.848;4.584;2023-05-10T10:36:39;2.40;;;2.10;;
22973;SDS011;11653;50.848;4.584;2023-05-10T10:39:10;2.17;;;1.77;;
22973;SDS011;11653;50.848;4.584;2023-05-10T10:41:40;2.60;;;2.10;;
22973;SDS011;11653;50.848;4.584;2023-05-10T10:49:27;2.70;;;1.97;;
22973;SDS011;11653;50.848;4.584;2023-05-10T10:57:28;2.40;;;1.60;;
22973;SDS011;11653;50.848;4.584;2023-05-10T11:05:34;2.33;;;1.40;;
22973;SDS011;11653;50.848;4.584;2023-05-10T11:08:26;2.40;;;1.43;;
22973;SDS011;11653;50.848;4.584;2023-05-10T11:13:41;2.57;;;1.70;;
22973;SDS011;11653;50.848;4.584;2023-05-10T11:16:19;2.10;;;1.80;;
22973;SDS011;11653;50.848;4.584;2023-05-10T11:18:58;2.87;;;1.87;;
22973;SDS011;11653;50.848;4.584;2023-05-10T11:21:33;2.30;;;1.90;;
22973;SDS011;11653;50.848;4.584;2023-05-10T11:24:13;2.30;;;1.70;;
22973;SDS011;11653;50.848;4.584;2023-05-10T11:26:40;3.10;;;2.40;;
22973;SDS011;11653;50.848;4.584;2023-05-10T11:29:05;2.73;;;2.43;;
22973;SDS011;11653;50.848;4.584;2023-05-10T11:31:32;4.07;;;2.17;;
22973;SDS011;11653;50.848;4.584;2023-05-10T11:33:58;4.47;;;2.27;;
22973;SDS011;11653;50.848;4.584;2023-05-10T11:36:32;3.17;;;2.57;;
22973;SDS011;11653;50.848;4.584;2023-05-10T11:38:59;3.17;;;2.40;;
22973;SDS011;11653;50.848;4.584;2023-05-10T11:41:26;2.70;;;2.50;;
22973;SDS011;11653;50.848;4.584;2023-05-10T11:43:53;3.07;;;2.77;;
22973;SDS011;11653;50.848;4.584;2023-05-10T11:46:20;5.13;;;2.97;;
22973;SDS011;11653;50.848;4.584;2023-05-10T11:48:51;4.33;;;2.53;;
22973;SDS011;11653;50.848;4.584;2023-05-10T11:51:21;4.87;;;3.33;;
22973;SDS011;11653;50.848;4.584;2023-05-10T11:53:49;3.73;;;2.93;;
22973;SDS011;11653;50.848;4.584;2023-05-10T11:56:17;3.13;;;2.80;;
22973;SDS011;11653;50.848;4.584;2023-05-10T11:58:43;7.03;;;3.33;;
22973;SDS011;11653;50.848;4.584;2023-05-10T12:01:09;4.70;;;3.30;;
22973;SDS011;11653;50.848;4.584;2023-05-10T12:03:36;4.50;;;3.30;;
22973;SDS011;11653;50.848;4.584;2023-05-10T12:06:03;3.60;;;3.07;;
22973;SDS011;11653;50.848;4.584;2023-05-10T12:08:29;3.17;;;2.87;;
22973;SDS011;11653;50.848;4.584;2023-05-10T12:11:08;3.70;;;3.27;;
22973;SDS011;11653;50.848;4.584;2023-05-10T12:13:39;4.33;;;3.60;;
22973;SDS011;11653;50.848;4.584;2023-05-10T12:16:12;3.37;;;3.07;;
22973;SDS011;11653;50.848;4.584;2023-05-10T12:18:40;3.47;;;2.93;;
22973;SDS011;11653;50.848;4.584;2023-05-10T12:21:07;2.93;;;2.60;;
22973;SDS011;11653;50.848;4.584;2023-05-10T12:23:36;4.57;;;2.73;;
22973;SDS011;11653;50.848;4.584;2023-05-10T12:26:02;3.20;;;2.73;;
22973;SDS011;11653;50.848;4.584;2023-05-10T12:28:32;4.30;;;2.43;;
22973;SDS011;11653;50.848;4.584;2023-05-10T12:31:01;3.57;;;2.40;;
22973;SDS011;11653;50.848;4.584;2023-05-10T12:33:27;8.90;;;2.13;;
22973;SDS011;11653;50.848;4.584;2023-05-10T12:36:11;4.43;;;2.40;;
22973;SDS011;11653;50.848;4.584;2023-05-10T12:38:44;2.67;;;2.47;;
22973;SDS011;11653;50.848;4.584;2023-05-10T12:41:14;3.77;;;2.77;;
22973;SDS011;11653;50.848;4.584;2023-05-10T12:43:41;2.50;;;2.20;;
22973;SDS011;11653;50.848;4.584;2023-05-10T12:46:08;3.80;;;2.30;;
22973;SDS011;11653;50.848;4.584;2023-05-10T12:48:35;3.37;;;2.03;;
22973;SDS011;11653;50.848;4.584;2023-05-10T12:51:02;2.90;;;2.43;;
22973;SDS011;11653;50.848;4.584;2023-05-10T12:53:29;3.50;;;2.40;;
22973;SDS011;11653;50.848;4.584;2023-05-10T12:55:55;4.07;;;2.43;;
22973;SDS011;11653;50.848;4.584;2023-05-10T12:58:21;2.53;;;2.33;;
22973;SDS011;11653;50.848;4.584;2023-05-10T13:00:46;2.50;;;2.30;;
22973;SDS011;11653;50.848;4.584;2023-05-10T13:03:12;4.90;;;2.57;;
22973;SDS011;11653;50.848;4.584;2023-05-10T13:05:38;3.27;;;2.57;;
22973;SDS011;11653;50.848;4.584;2023-05-10T13:08:04;3.03;;;2.50;;
22973;SDS011;11653;50.848;4.584;2023-05-10T13:10:30;2.70;;;2.40;;
22973;SDS011;11653;50.848;4.584;2023-05-10T13:12:56;3.93;;;2.50;;
22973;SDS011;11653;50.848;4.584;2023-05-10T13:15:23;3.80;;;2.70;;
22973;SDS011;11653;50.848;4.584;2023-05-10T13:17:49;2.80;;;2.47;;
22973;SDS011;11653;50.848;4.584;2023-05-10T13:20:15;4.93;;;2.67;;
22973;SDS011;11653;50.848;4.584;2023-05-10T13:22:41;5.47;;;3.07;;
22973;SDS011;11653;50.848;4.584;2023-05-10T13:25:10;3.40;;;2.87;;
22973;SDS011;11653;50.848;4.584;2023-05-10T13:27:36;3.47;;;2.30;;
22973;SDS011;11653;50.848;4.584;2023-05-10T13:30:05;3.30;;;2.63;;
22973;SDS011;11653;50.848;4.584;2023-05-10T13:32:32;4.13;;;2.77;;
22973;SDS011;11653;50.848;4.584;2023-05-10T13:35:01;4.57;;;2.50;;
22973;SDS011;11653;50.848;4.584;2023-05-10T13:37:31;5.20;;;2.80;;
22973;SDS011;11653;50.848;4.584;2023-05-10T13:40:00;2.47;;;2.27;;
22973;SDS011;11653;50.848;4.584;2023-05-10T13:42:26;2.57;;;2.33;;
22973;SDS011;11653;50.848;4.584;2023-05-10T13:44:52;8.30;;;2.80;;
22973;SDS011;11653;50.848;4.584;2023-05-10T13:47:17;3.90;;;2.20;;
22973;SDS011;11653;50.848;4.584;2023-05-10T13:49:43;2.80;;;2.50;;
22973;SDS011;11653;50.848;4.584;2023-05-10T13:52:09;3.00;;;2.40;;
22973;SDS011;11653;50.848;4.584;2023-05-10T13:54:38;2.97;;;2.23;;
22973;SDS011;11653;50.848;4.584;2023-05-10T13:57:04;3.73;;;2.33;;
22973;SDS011;11653;50.848;4.584;2023-05-10T13:59:29;3.57;;;2.80;;
22973;SDS011;11653;50.848;4.584;2023-05-10T14:01:59;7.37;;;2.23;;
22973;SDS011;11653;50.848;4.584;2023-05-10T14:04:25;4.90;;;2.43;;
22973;SDS011;11653;50.848;4.584;2023-05-10T14:06:50;3.43;;;2.63;;
22973;SDS011;11653;50.848;4.584;2023-05-10T14:09:17;4.60;;;2.90;;
22973;SDS011;11653;50.848;4.584;2023-05-10T14:11:43;4.20;;;2.97;;
22973;SDS011;11653;50.848;4.584;2023-05-10T14:14:09;4.80;;;2.90;;
22973;SDS011;11653;50.848;4.584;2023-05-10T14:16:35;3.93;;;2.70;;
22973;SDS011;11653;50.848;4.584;2023-05-10T14:19:01;3.30;;;3.00;;
22973;SDS011;11653;50.848;4.584;2023-05-10T14:21:27;4.07;;;2.63;;
22973;SDS011;11653;50.848;4.584;2023-05-10T14:23:56;3.63;;;3.00;;
22973;SDS011;11653;50.848;4.584;2023-05-10T14:26:22;4.10;;;3.03;;
22973;SDS011;11653;50.848;4.584;2023-05-10T14:28:47;4.20;;;2.97;;
22973;SDS011;11653;50.848;4.584;2023-05-10T14:31:13;4.93;;;2.90;;
22973;SDS011;11653;50.848;4.584;2023-05-10T14:33:39;7.27;;;3.50;;
22973;SDS011;11653;50.848;4.584;2023-05-10T14:36:06;5.47;;;2.93;;
22973;SDS011;11653;50.848;4.584;2023-05-10T14:38:32;5.23;;;3.70;;
22973;SDS011;11653;50.848;4.584;2023-05-10T14:40:57;4.47;;;3.33;;
22973;SDS011;11653;50.848;4.584;2023-05-10T14:43:23;6.37;;;3.80;;
22973;SDS011;11653;50.848;4.584;2023-05-10T14:45:49;5.47;;;3.97;;
22973;SDS011;11653;50.848;4.584;2023-05-10T14:48:15;5.43;;;4.40;;
22973;SDS011;11653;50.848;4.584;2023-05-10T14:50:42;6.13;;;4.60;;
22973;SDS011;11653;50.848;4.584;2023-05-10T14:53:08;6.77;;;4.40;;
22973;SDS011;11653;50.848;4.584;2023-05-10T14:55:34;6.00;;;4.40;;
22973;SDS011;11653;50.848;4.584;2023-05-10T14:58:01;9.33;;;5.53;;
22973;SDS011;11653;50.848;4.584;2023-05-10T15:00:28;9.80;;;5.30;;
22973;SDS011;11653;50.848;4.584;2023-05-10T15:02:54;7.97;;;5.80;;
22973;SDS011;11653;50.848;4.584;2023-05-10T15:05:20;7.33;;;5.20;;
22973;SDS011;11653;50.848;4.584;2023-05-10T15:07:46;8.53;;;5.50;;
22973;SDS011;11653;50.848;4.584;2023-05-10T15:10:12;11.57;;;6.73;;
22973;SDS011;11653;50.848;4.584;2023-05-10T15:12:39;10.07;;;6.80;;
22973;SDS011;11653;50.848;4.584;2023-05-10T15:15:05;7.93;;;5.93;;
22973;SDS011;11653;50.848;4.584;2023-05-10T15:17:31;10.07;;;7.23;;